sensor_id;sensor_type;location;lat;lon;timestamp;P1;durP1;ratioP1;P2;durP2;ratioP2
29732;SDS011;16643;43.158;25.302;2023-03-26T00:01:31;5.20;;;3.22;;
29732;SDS011;16643;43.158;25.302;2023-03-26T00:04:00;5.57;;;2.88;;
29732;SDS011;16643;43.158;25.302;2023-03-26T00:06:28;4.00;;;2.40;;
29732;SDS011;16643;43.158;25.302;2023-03-26T00:08:57;5.35;;;2.72;;
29732;SDS011;16643;43.158;25.302;2023-03-26T00:11:24;4.43;;;2.45;;
29732;SDS011;16643;43.158;25.302;2023-03-26T00:13:51;5.45;;;3.28;;
29732;SDS011;16643;43.158;25.302;2023-03-26T00:16:23;5.63;;;2.17;;
29732;SDS011;16643;43.158;25.302;2023-03-26T00:18:50;4.60;;;2.80;;
29732;SDS011;16643;43.158;25.302;2023-03-26T00:21:16;4.40;;;2.10;;
29732;SDS011;16643;43.158;25.302;2023-03-26T00:23:52;6.25;;;3.13;;
29732;SDS011;16643;43.158;25.302;2023-03-26T00:26:19;6.70;;;4.07;;
29732;SDS011;16643;43.158;25.302;2023-03-26T00:28:45;5.35;;;2.78;;
29732;SDS011;16643;43.158;25.302;2023-03-26T00:31:14;6.25;;;2.70;;
29732;SDS011;16643;43.158;25.302;2023-03-26T00:33:41;4.10;;;2.90;;
29732;SDS011;16643;43.158;25.302;2023-03-26T00:36:08;5.63;;;2.72;;
29732;SDS011;16643;43.158;25.302;2023-03-26T00:38:38;5.45;;;2.50;;
29732;SDS011;16643;43.158;25.302;2023-03-26T00:41:06;5.47;;;3.05;;
29732;SDS011;16643;43.158;25.302;2023-03-26T00:43:41;4.47;;;3.08;;
29732;SDS011;16643;43.158;25.302;2023-03-26T00:46:10;2.83;;;2.28;;
29732;SDS011;16643;43.158;25.302;2023-03-26T00:48:35;6.45;;;3.10;;
29732;SDS011;16643;43.158;25.302;2023-03-26T00:51:03;5.20;;;3.60;;
29732;SDS011;16643;43.158;25.302;2023-03-26T00:53:30;3.92;;;2.58;;
29732;SDS011;16643;43.158;25.302;2023-03-26T00:55:56;3.28;;;2.10;;
29732;SDS011;16643;43.158;25.302;2023-03-26T00:58:26;4.80;;;2.72;;
29732;SDS011;16643;43.158;25.302;2023-03-26T01:00:53;5.22;;;2.85;;
29732;SDS011;16643;43.158;25.302;2023-03-26T01:03:21;6.80;;;2.58;;
29732;SDS011;16643;43.158;25.302;2023-03-26T01:05:56;3.92;;;2.38;;
29732;SDS011;16643;43.158;25.302;2023-03-26T01:08:33;5.05;;;2.58;;
29732;SDS011;16643;43.158;25.302;2023-03-26T01:11:04;4.10;;;2.42;;
29732;SDS011;16643;43.158;25.302;2023-03-26T01:13:38;2.97;;;2.20;;
29732;SDS011;16643;43.158;25.302;2023-03-26T01:16:07;3.33;;;2.40;;
29732;SDS011;16643;43.158;25.302;2023-03-26T01:21:10;4.55;;;2.60;;
29732;SDS011;16643;43.158;25.302;2023-03-26T01:23:42;4.38;;;2.75;;
29732;SDS011;16643;43.158;25.302;2023-03-26T01:26:24;3.70;;;2.47;;
29732;SDS011;16643;43.158;25.302;2023-03-26T01:29:03;4.45;;;2.85;;
29732;SDS011;16643;43.158;25.302;2023-03-26T01:31:39;3.20;;;2.45;;
29732;SDS011;16643;43.158;25.302;2023-03-26T01:34:23;4.40;;;2.22;;
29732;SDS011;16643;43.158;25.302;2023-03-26T01:39:55;2.50;;;1.73;;
29732;SDS011;16643;43.158;25.302;2023-03-26T01:42:33;4.05;;;2.03;;
29732;SDS011;16643;43.158;25.302;2023-03-26T01:45:10;4.13;;;2.20;;
29732;SDS011;16643;43.158;25.302;2023-03-26T01:47:41;3.28;;;1.63;;
29732;SDS011;16643;43.158;25.302;2023-03-26T01:50:08;2.05;;;1.55;;
29732;SDS011;16643;43.158;25.302;2023-03-26T01:52:34;2.88;;;1.70;;
29732;SDS011;16643;43.158;25.302;2023-03-26T01:55:00;2.92;;;1.63;;
29732;SDS011;16643;43.158;25.302;2023-03-26T02:00:22;2.88;;;1.85;;
29732;SDS011;16643;43.158;25.302;2023-03-26T02:05:46;3.92;;;1.70;;
29732;SDS011;16643;43.158;25.302;2023-03-26T02:08:25;4.30;;;1.65;;
29732;SDS011;16643;43.158;25.302;2023-03-26T02:11:01;2.72;;;1.65;;
29732;SDS011;16643;43.158;25.302;2023-03-26T02:13:30;2.58;;;1.70;;
29732;SDS011;16643;43.158;25.302;2023-03-26T02:15:57;2.83;;;1.60;;
29732;SDS011;16643;43.158;25.302;2023-03-26T02:18:28;2.10;;;1.27;;
29732;SDS011;16643;43.158;25.302;2023-03-26T02:21:13;2.92;;;1.52;;
29732;SDS011;16643;43.158;25.302;2023-03-26T02:23:44;2.83;;;1.50;;
29732;SDS011;16643;43.158;25.302;2023-03-26T02:26:11;2.80;;;1.50;;
29732;SDS011;16643;43.158;25.302;2023-03-26T02:28:39;2.38;;;1.65;;
29732;SDS011;16643;43.158;25.302;2023-03-26T02:31:04;2.47;;;1.60;;
29732;SDS011;16643;43.158;25.302;2023-03-26T02:33:30;2.97;;;1.90;;
29732;SDS011;16643;43.158;25.302;2023-03-26T02:35:57;2.80;;;1.92;;
29732;SDS011;16643;43.158;25.302;2023-03-26T02:38:27;2.88;;;1.70;;
29732;SDS011;16643;43.158;25.302;2023-03-26T02:40:53;2.25;;;1.50;;
29732;SDS011;16643;43.158;25.302;2023-03-26T02:43:20;4.50;;;1.38;;
29732;SDS011;16643;43.158;25.302;2023-03-26T02:45:46;3.05;;;1.85;;
29732;SDS011;16643;43.158;25.302;2023-03-26T02:48:12;2.70;;;1.52;;
29732;SDS011;16643;43.158;25.302;2023-03-26T02:50:39;2.60;;;1.33;;
29732;SDS011;16643;43.158;25.302;2023-03-26T02:53:05;1.80;;;1.10;;
29732;SDS011;16643;43.158;25.302;2023-03-26T02:55:31;3.20;;;1.55;;
29732;SDS011;16643;43.158;25.302;2023-03-26T02:57:56;4.50;;;1.70;;
29732;SDS011;16643;43.158;25.302;2023-03-26T03:00:22;2.53;;;1.30;;
29732;SDS011;16643;43.158;25.302;2023-03-26T03:02:50;1.97;;;1.20;;
29732;SDS011;16643;43.158;25.302;2023-03-26T03:05:17;2.25;;;1.05;;
29732;SDS011;16643;43.158;25.302;2023-03-26T03:07:44;3.47;;;1.20;;
29732;SDS011;16643;43.158;25.302;2023-03-26T03:10:10;2.22;;;1.38;;
29732;SDS011;16643;43.158;25.302;2023-03-26T03:12:38;1.67;;;1.10;;
29732;SDS011;16643;43.158;25.302;2023-03-26T03:15:05;2.23;;;1.10;;
29732;SDS011;16643;43.158;25.302;2023-03-26T03:17:32;1.85;;;1.20;;
29732;SDS011;16643;43.158;25.302;2023-03-26T03:19:57;3.13;;;1.50;;
29732;SDS011;16643;43.158;25.302;2023-03-26T03:22:23;2.67;;;1.23;;
29732;SDS011;16643;43.158;25.302;2023-03-26T03:24:49;2.72;;;1.23;;
29732;SDS011;16643;43.158;25.302;2023-03-26T03:27:16;2.50;;;2.03;;
29732;SDS011;16643;43.158;25.302;2023-03-26T03:29:44;5.63;;;2.00;;
29732;SDS011;16643;43.158;25.302;2023-03-26T03:32:10;3.40;;;1.85;;
29732;SDS011;16643;43.158;25.302;2023-03-26T03:34:36;3.40;;;2.05;;
29732;SDS011;16643;43.158;25.302;2023-03-26T03:37:03;2.17;;;1.65;;
29732;SDS011;16643;43.158;25.302;2023-03-26T03:39:29;4.03;;;2.08;;
29732;SDS011;16643;43.158;25.302;2023-03-26T03:41:55;3.15;;;2.00;;
29732;SDS011;16643;43.158;25.302;2023-03-26T03:44:20;3.50;;;2.15;;
29732;SDS011;16643;43.158;25.302;2023-03-26T03:46:46;4.18;;;2.15;;
29732;SDS011;16643;43.158;25.302;2023-03-26T03:49:13;4.07;;;2.17;;
29732;SDS011;16643;43.158;25.302;2023-03-26T03:51:39;2.58;;;1.70;;
29732;SDS011;16643;43.158;25.302;2023-03-26T03:54:06;2.55;;;1.52;;
29732;SDS011;16643;43.158;25.302;2023-03-26T03:56:32;4.60;;;2.42;;
29732;SDS011;16643;43.158;25.302;2023-03-26T03:58:58;3.20;;;1.70;;
29732;SDS011;16643;43.158;25.302;2023-03-26T04:01:23;5.78;;;1.77;;
29732;SDS011;16643;43.158;25.302;2023-03-26T04:03:49;3.53;;;1.58;;
29732;SDS011;16643;43.158;25.302;2023-03-26T04:06:15;3.40;;;2.13;;
29732;SDS011;16643;43.158;25.302;2023-03-26T04:08:43;3.63;;;1.80;;
29732;SDS011;16643;43.158;25.302;2023-03-26T04:11:10;3.35;;;2.10;;
29732;SDS011;16643;43.158;25.302;2023-03-26T04:13:37;5.00;;;2.00;;
29732;SDS011;16643;43.158;25.302;2023-03-26T04:16:03;4.55;;;1.95;;
29732;SDS011;16643;43.158;25.302;2023-03-26T04:18:29;4.70;;;2.60;;
29732;SDS011;16643;43.158;25.302;2023-03-26T04:20:56;5.20;;;2.35;;
29732;SDS011;16643;43.158;25.302;2023-03-26T04:23:26;5.28;;;2.55;;
29732;SDS011;16643;43.158;25.302;2023-03-26T04:25:53;4.75;;;2.80;;
29732;SDS011;16643;43.158;25.302;2023-03-26T04:31:26;5.63;;;2.92;;
29732;SDS011;16643;43.158;25.302;2023-03-26T04:34:16;3.72;;;2.47;;
29732;SDS011;16643;43.158;25.302;2023-03-26T04:36:47;10.00;;;2.80;;
29732;SDS011;16643;43.158;25.302;2023-03-26T04:39:13;4.65;;;2.67;;
29732;SDS011;16643;43.158;25.302;2023-03-26T04:41:38;3.97;;;2.22;;
29732;SDS011;16643;43.158;25.302;2023-03-26T04:44:04;5.53;;;2.58;;
29732;SDS011;16643;43.158;25.302;2023-03-26T04:46:31;4.05;;;2.58;;
29732;SDS011;16643;43.158;25.302;2023-03-26T04:48:57;4.70;;;2.70;;
29732;SDS011;16643;43.158;25.302;2023-03-26T04:51:25;4.30;;;2.88;;
29732;SDS011;16643;43.158;25.302;2023-03-26T04:53:58;5.80;;;3.17;;
29732;SDS011;16643;43.158;25.302;2023-03-26T04:59:18;6.90;;;3.33;;
29732;SDS011;16643;43.158;25.302;2023-03-26T05:01:53;5.20;;;3.28;;
29732;SDS011;16643;43.158;25.302;2023-03-26T05:04:19;6.53;;;3.40;;
29732;SDS011;16643;43.158;25.302;2023-03-26T05:06:45;7.65;;;4.15;;
29732;SDS011;16643;43.158;25.302;2023-03-26T05:09:11;6.93;;;3.40;;
29732;SDS011;16643;43.158;25.302;2023-03-26T05:11:36;6.13;;;4.07;;
29732;SDS011;16643;43.158;25.302;2023-03-26T05:14:02;7.15;;;3.90;;
29732;SDS011;16643;43.158;25.302;2023-03-26T05:16:28;4.80;;;2.88;;
29732;SDS011;16643;43.158;25.302;2023-03-26T05:18:55;6.20;;;4.35;;
29732;SDS011;16643;43.158;25.302;2023-03-26T05:21:21;7.80;;;3.78;;
29732;SDS011;16643;43.158;25.302;2023-03-26T05:23:47;6.47;;;3.70;;
29732;SDS011;16643;43.158;25.302;2023-03-26T05:26:13;6.05;;;3.85;;
29732;SDS011;16643;43.158;25.302;2023-03-26T05:28:39;5.22;;;3.33;;
29732;SDS011;16643;43.158;25.302;2023-03-26T05:31:05;4.43;;;3.08;;
29732;SDS011;16643;43.158;25.302;2023-03-26T05:33:32;4.57;;;3.25;;
29732;SDS011;16643;43.158;25.302;2023-03-26T05:35:58;6.18;;;3.30;;
29732;SDS011;16643;43.158;25.302;2023-03-26T05:38:26;5.57;;;3.13;;
29732;SDS011;16643;43.158;25.302;2023-03-26T05:40:57;5.68;;;3.47;;
29732;SDS011;16643;43.158;25.302;2023-03-26T05:43:27;5.50;;;3.30;;
29732;SDS011;16643;43.158;25.302;2023-03-26T05:45:54;6.53;;;3.38;;
29732;SDS011;16643;43.158;25.302;2023-03-26T05:48:20;7.05;;;3.80;;
29732;SDS011;16643;43.158;25.302;2023-03-26T05:50:51;5.38;;;3.00;;
29732;SDS011;16643;43.158;25.302;2023-03-26T05:53:19;5.35;;;2.95;;
29732;SDS011;16643;43.158;25.302;2023-03-26T05:55:47;8.07;;;4.55;;
29732;SDS011;16643;43.158;25.302;2023-03-26T05:58:29;5.22;;;2.92;;
29732;SDS011;16643;43.158;25.302;2023-03-26T06:03:30;5.32;;;2.83;;
29732;SDS011;16643;43.158;25.302;2023-03-26T06:05:57;4.93;;;2.92;;
29732;SDS011;16643;43.158;25.302;2023-03-26T06:08:23;4.70;;;2.50;;
29732;SDS011;16643;43.158;25.302;2023-03-26T06:10:49;4.03;;;2.45;;
29732;SDS011;16643;43.158;25.302;2023-03-26T06:13:27;5.55;;;3.03;;
29732;SDS011;16643;43.158;25.302;2023-03-26T06:15:54;5.35;;;2.67;;
29732;SDS011;16643;43.158;25.302;2023-03-26T06:18:22;4.85;;;2.80;;
29732;SDS011;16643;43.158;25.302;2023-03-26T06:20:49;5.57;;;2.80;;
29732;SDS011;16643;43.158;25.302;2023-03-26T06:23:16;6.88;;;3.00;;
29732;SDS011;16643;43.158;25.302;2023-03-26T06:25:44;5.97;;;2.60;;
29732;SDS011;16643;43.158;25.302;2023-03-26T06:28:11;4.55;;;2.28;;
29732;SDS011;16643;43.158;25.302;2023-03-26T06:30:37;8.57;;;3.35;;
29732;SDS011;16643;43.158;25.302;2023-03-26T06:33:04;7.90;;;6.22;;
29732;SDS011;16643;43.158;25.302;2023-03-26T06:35:30;5.28;;;3.58;;
29732;SDS011;16643;43.158;25.302;2023-03-26T06:37:57;4.45;;;2.22;;
29732;SDS011;16643;43.158;25.302;2023-03-26T06:40:23;4.00;;;2.53;;
29732;SDS011;16643;43.158;25.302;2023-03-26T06:42:51;3.58;;;2.00;;
29732;SDS011;16643;43.158;25.302;2023-03-26T06:45:17;4.00;;;3.00;;
29732;SDS011;16643;43.158;25.302;2023-03-26T06:47:43;8.60;;;6.60;;
29732;SDS011;16643;43.158;25.302;2023-03-26T06:50:09;4.78;;;2.75;;
29732;SDS011;16643;43.158;25.302;2023-03-26T06:52:36;5.38;;;2.50;;
29732;SDS011;16643;43.158;25.302;2023-03-26T06:55:02;3.08;;;2.10;;
29732;SDS011;16643;43.158;25.302;2023-03-26T06:57:33;4.70;;;2.40;;
29732;SDS011;16643;43.158;25.302;2023-03-26T06:59:59;4.10;;;2.15;;
29732;SDS011;16643;43.158;25.302;2023-03-26T07:02:25;4.15;;;2.00;;
29732;SDS011;16643;43.158;25.302;2023-03-26T07:04:50;4.57;;;2.05;;
29732;SDS011;16643;43.158;25.302;2023-03-26T07:07:17;4.05;;;1.80;;
29732;SDS011;16643;43.158;25.302;2023-03-26T07:09:45;4.00;;;2.33;;
29732;SDS011;16643;43.158;25.302;2023-03-26T07:12:12;3.55;;;2.17;;
29732;SDS011;16643;43.158;25.302;2023-03-26T07:14:38;4.35;;;1.80;;
29732;SDS011;16643;43.158;25.302;2023-03-26T07:17:05;3.10;;;1.70;;
29732;SDS011;16643;43.158;25.302;2023-03-26T07:19:31;3.85;;;1.90;;
29732;SDS011;16643;43.158;25.302;2023-03-26T07:21:57;5.43;;;2.90;;
29732;SDS011;16643;43.158;25.302;2023-03-26T07:24:23;9.38;;;6.18;;
29732;SDS011;16643;43.158;25.302;2023-03-26T07:26:52;22.95;;;15.68;;
29732;SDS011;16643;43.158;25.302;2023-03-26T07:29:47;3.30;;;2.05;;
29732;SDS011;16643;43.158;25.302;2023-03-26T07:32:24;6.50;;;2.57;;
29732;SDS011;16643;43.158;25.302;2023-03-26T07:35:23;4.28;;;2.17;;
29732;SDS011;16643;43.158;25.302;2023-03-26T07:38:23;6.88;;;4.30;;
29732;SDS011;16643;43.158;25.302;2023-03-26T07:46:26;3.92;;;1.40;;
29732;SDS011;16643;43.158;25.302;2023-03-26T07:48:56;2.55;;;1.55;;
29732;SDS011;16643;43.158;25.302;2023-03-26T07:51:24;4.03;;;1.95;;
29732;SDS011;16643;43.158;25.302;2023-03-26T07:53:51;1.92;;;1.55;;
29732;SDS011;16643;43.158;25.302;2023-03-26T07:56:18;7.35;;;1.67;;
29732;SDS011;16643;43.158;25.302;2023-03-26T08:02:00;2.45;;;1.15;;
29732;SDS011;16643;43.158;25.302;2023-03-26T08:04:57;3.42;;;1.45;;
29732;SDS011;16643;43.158;25.302;2023-03-26T08:07:37;5.18;;;1.65;;
29732;SDS011;16643;43.158;25.302;2023-03-26T08:17:58;1.38;;;1.17;;
29732;SDS011;16643;43.158;25.302;2023-03-26T08:20:31;3.80;;;1.30;;
29732;SDS011;16643;43.158;25.302;2023-03-26T08:25:52;3.97;;;1.25;;
29732;SDS011;16643;43.158;25.302;2023-03-26T08:31:22;2.80;;;1.33;;
29732;SDS011;16643;43.158;25.302;2023-03-26T08:33:57;5.67;;;1.40;;
29732;SDS011;16643;43.158;25.302;2023-03-26T08:36:22;1.98;;;1.10;;
29732;SDS011;16643;43.158;25.302;2023-03-26T08:38:48;3.88;;;1.52;;
29732;SDS011;16643;43.158;25.302;2023-03-26T08:41:27;2.72;;;1.52;;
29732;SDS011;16643;43.158;25.302;2023-03-26T08:46:56;1.42;;;0.90;;
29732;SDS011;16643;43.158;25.302;2023-03-26T08:49:41;1.85;;;0.85;;
29732;SDS011;16643;43.158;25.302;2023-03-26T08:58:22;2.42;;;1.13;;
29732;SDS011;16643;43.158;25.302;2023-03-26T09:01:43;3.28;;;1.38;;
29732;SDS011;16643;43.158;25.302;2023-03-26T09:04:28;1.58;;;1.00;;
29732;SDS011;16643;43.158;25.302;2023-03-26T09:07:43;1.88;;;1.00;;
29732;SDS011;16643;43.158;25.302;2023-03-26T09:18:40;1.63;;;1.00;;
29732;SDS011;16643;43.158;25.302;2023-03-26T09:24:07;1.92;;;0.80;;
29732;SDS011;16643;43.158;25.302;2023-03-26T09:32:26;3.00;;;0.93;;
29732;SDS011;16643;43.158;25.302;2023-03-26T09:46:30;0.75;;;0.60;;
29732;SDS011;16643;43.158;25.302;2023-03-26T09:49:33;1.25;;;0.70;;
29732;SDS011;16643;43.158;25.302;2023-03-26T09:55:12;1.58;;;0.82;;
29732;SDS011;16643;43.158;25.302;2023-03-26T09:58:00;4.25;;;0.90;;
29732;SDS011;16643;43.158;25.302;2023-03-26T10:00:47;0.70;;;0.52;;
29732;SDS011;16643;43.158;25.302;2023-03-26T10:03:45;2.20;;;0.90;;
29732;SDS011;16643;43.158;25.302;2023-03-26T10:06:33;3.78;;;0.85;;
29732;SDS011;16643;43.158;25.302;2023-03-26T10:12:20;0.60;;;0.50;;
29732;SDS011;16643;43.158;25.302;2023-03-26T10:15:03;0.77;;;0.60;;
29732;SDS011;16643;43.158;25.302;2023-03-26T10:20:51;0.95;;;0.70;;
29732;SDS011;16643;43.158;25.302;2023-03-26T10:26:26;0.55;;;0.50;;
29732;SDS011;16643;43.158;25.302;2023-03-26T10:51:49;1.08;;;0.60;;
29732;SDS011;16643;43.158;25.302;2023-03-26T10:54:22;0.55;;;0.40;;
29732;SDS011;16643;43.158;25.302;2023-03-26T10:56:59;1.05;;;0.50;;
29732;SDS011;16643;43.158;25.302;2023-03-26T10:59:30;1.23;;;0.63;;
29732;SDS011;16643;43.158;25.302;2023-03-26T11:04:44;1.45;;;0.80;;
29732;SDS011;16643;43.158;25.302;2023-03-26T11:10:07;0.50;;;0.32;;
29732;SDS011;16643;43.158;25.302;2023-03-26T11:15:38;1.55;;;0.45;;
29732;SDS011;16643;43.158;25.302;2023-03-26T11:18:18;0.50;;;0.30;;
29732;SDS011;16643;43.158;25.302;2023-03-26T11:23:39;0.98;;;0.45;;
29732;SDS011;16643;43.158;25.302;2023-03-26T11:26:17;1.60;;;0.43;;
29732;SDS011;16643;43.158;25.302;2023-03-26T11:31:55;0.47;;;0.47;;
29732;SDS011;16643;43.158;25.302;2023-03-26T11:34:58;0.40;;;0.28;;
29732;SDS011;16643;43.158;25.302;2023-03-26T11:37:32;1.75;;;0.50;;
29732;SDS011;16643;43.158;25.302;2023-03-26T11:39:58;1.42;;;0.43;;
29732;SDS011;16643;43.158;25.302;2023-03-26T11:42:30;0.38;;;0.38;;
29732;SDS011;16643;43.158;25.302;2023-03-26T11:44:59;0.57;;;0.30;;
29732;SDS011;16643;43.158;25.302;2023-03-26T11:47:34;0.68;;;0.40;;
29732;SDS011;16643;43.158;25.302;2023-03-26T11:50:04;0.73;;;0.43;;
29732;SDS011;16643;43.158;25.302;2023-03-26T11:52:35;0.57;;;0.40;;
29732;SDS011;16643;43.158;25.302;2023-03-26T11:55:01;0.98;;;0.30;;
29732;SDS011;16643;43.158;25.302;2023-03-26T11:57:28;0.68;;;0.50;;
29732;SDS011;16643;43.158;25.302;2023-03-26T12:00:02;2.28;;;0.40;;
29732;SDS011;16643;43.158;25.302;2023-03-26T12:02:42;0.40;;;0.40;;
29732;SDS011;16643;43.158;25.302;2023-03-26T12:05:19;1.92;;;0.50;;
29732;SDS011;16643;43.158;25.302;2023-03-26T12:08:14;0.38;;;0.25;;
29732;SDS011;16643;43.158;25.302;2023-03-26T12:10:42;0.40;;;0.30;;
29732;SDS011;16643;43.158;25.302;2023-03-26T12:16:05;0.57;;;0.30;;
29732;SDS011;16643;43.158;25.302;2023-03-26T12:18:37;4.32;;;0.60;;
29732;SDS011;16643;43.158;25.302;2023-03-26T12:21:09;2.38;;;0.50;;
29732;SDS011;16643;43.158;25.302;2023-03-26T12:23:43;1.35;;;0.60;;
29732;SDS011;16643;43.158;25.302;2023-03-26T12:26:10;0.47;;;0.40;;
29732;SDS011;16643;43.158;25.302;2023-03-26T12:28:47;1.13;;;0.43;;
29732;SDS011;16643;43.158;25.302;2023-03-26T12:31:14;0.65;;;0.38;;
29732;SDS011;16643;43.158;25.302;2023-03-26T12:33:45;0.75;;;0.40;;
29732;SDS011;16643;43.158;25.302;2023-03-26T12:36:28;0.55;;;0.55;;
29732;SDS011;16643;43.158;25.302;2023-03-26T12:38:57;0.80;;;0.30;;
29732;SDS011;16643;43.158;25.302;2023-03-26T12:41:37;0.88;;;0.60;;
29732;SDS011;16643;43.158;25.302;2023-03-26T12:44:21;0.50;;;0.40;;
29732;SDS011;16643;43.158;25.302;2023-03-26T12:47:05;0.50;;;0.30;;
29732;SDS011;16643;43.158;25.302;2023-03-26T12:49:34;0.88;;;0.40;;
29732;SDS011;16643;43.158;25.302;2023-03-26T12:52:06;1.00;;;0.50;;
29732;SDS011;16643;43.158;25.302;2023-03-26T12:55:07;1.17;;;0.50;;
29732;SDS011;16643;43.158;25.302;2023-03-26T12:58:13;2.67;;;0.70;;
29732;SDS011;16643;43.158;25.302;2023-03-26T13:03:42;0.55;;;0.32;;
29732;SDS011;16643;43.158;25.302;2023-03-26T13:06:33;1.38;;;0.52;;
29732;SDS011;16643;43.158;25.302;2023-03-26T13:20:15;0.80;;;0.50;;
29732;SDS011;16643;43.158;25.302;2023-03-26T13:23:01;0.73;;;0.50;;
29732;SDS011;16643;43.158;25.302;2023-03-26T13:26:34;2.90;;;0.65;;
29732;SDS011;16643;43.158;25.302;2023-03-26T13:37:22;2.22;;;0.60;;
29732;SDS011;16643;43.158;25.302;2023-03-26T13:48:25;1.42;;;0.40;;
29732;SDS011;16643;43.158;25.302;2023-03-26T13:51:09;0.30;;;0.30;;
29732;SDS011;16643;43.158;25.302;2023-03-26T13:53:43;1.30;;;0.47;;
29732;SDS011;16643;43.158;25.302;2023-03-26T13:56:22;2.85;;;0.40;;
29732;SDS011;16643;43.158;25.302;2023-03-26T13:58:55;1.08;;;0.43;;
29732;SDS011;16643;43.158;25.302;2023-03-26T14:01:27;2.90;;;0.63;;
29732;SDS011;16643;43.158;25.302;2023-03-26T14:06:49;1.15;;;0.57;;
29732;SDS011;16643;43.158;25.302;2023-03-26T14:17:29;0.82;;;0.60;;
29732;SDS011;16643;43.158;25.302;2023-03-26T14:23:10;1.55;;;0.68;;
29732;SDS011;16643;43.158;25.302;2023-03-26T14:31:40;1.15;;;0.70;;
29732;SDS011;16643;43.158;25.302;2023-03-26T14:34:20;2.95;;;0.50;;
29732;SDS011;16643;43.158;25.302;2023-03-26T14:36:52;1.23;;;0.60;;
29732;SDS011;16643;43.158;25.302;2023-03-26T14:48:08;0.60;;;0.60;;
29732;SDS011;16643;43.158;25.302;2023-03-26T14:54:08;4.45;;;0.82;;
29732;SDS011;16643;43.158;25.302;2023-03-26T14:59:50;0.80;;;0.60;;
29732;SDS011;16643;43.158;25.302;2023-03-26T15:05:44;2.15;;;0.70;;
29732;SDS011;16643;43.158;25.302;2023-03-26T15:19:54;1.98;;;0.70;;
29732;SDS011;16643;43.158;25.302;2023-03-26T15:22:27;1.10;;;0.60;;
29732;SDS011;16643;43.158;25.302;2023-03-26T15:42:52;1.00;;;0.80;;
29732;SDS011;16643;43.158;25.302;2023-03-26T15:48:47;2.10;;;0.73;;
29732;SDS011;16643;43.158;25.302;2023-03-26T16:08:00;2.63;;;1.10;;
29732;SDS011;16643;43.158;25.302;2023-03-26T16:10:54;0.77;;;0.60;;
29732;SDS011;16643;43.158;25.302;2023-03-26T16:24:17;5.75;;;1.58;;
29732;SDS011;16643;43.158;25.302;2023-03-26T16:27:02;1.50;;;1.00;;
29732;SDS011;16643;43.158;25.302;2023-03-26T16:32:40;1.30;;;0.70;;
29732;SDS011;16643;43.158;25.302;2023-03-26T16:37:40;1.30;;;0.77;;
29732;SDS011;16643;43.158;25.302;2023-03-26T16:45:33;1.30;;;0.70;;
29732;SDS011;16643;43.158;25.302;2023-03-26T16:51:23;2.25;;;0.50;;
29732;SDS011;16643;43.158;25.302;2023-03-26T16:54:33;0.60;;;0.50;;
29732;SDS011;16643;43.158;25.302;2023-03-26T17:00:04;3.65;;;0.80;;
29732;SDS011;16643;43.158;25.302;2023-03-26T17:10:55;6.07;;;2.72;;
29732;SDS011;16643;43.158;25.302;2023-03-26T17:13:36;6.75;;;3.00;;
29732;SDS011;16643;43.158;25.302;2023-03-26T17:19:01;2.95;;;1.50;;
29732;SDS011;16643;43.158;25.302;2023-03-26T17:21:40;2.38;;;1.23;;
29732;SDS011;16643;43.158;25.302;2023-03-26T17:24:33;3.88;;;1.67;;
29732;SDS011;16643;43.158;25.302;2023-03-26T17:27:26;3.95;;;1.17;;
29732;SDS011;16643;43.158;25.302;2023-03-26T17:33:05;4.18;;;1.20;;
29732;SDS011;16643;43.158;25.302;2023-03-26T17:43:34;1.27;;;0.73;;
29732;SDS011;16643;43.158;25.302;2023-03-26T17:54:21;1.33;;;0.93;;
29732;SDS011;16643;43.158;25.302;2023-03-26T17:56:50;2.95;;;1.30;;
29732;SDS011;16643;43.158;25.302;2023-03-26T17:59:19;4.13;;;1.65;;
29732;SDS011;16643;43.158;25.302;2023-03-26T18:02:00;4.28;;;1.30;;
29732;SDS011;16643;43.158;25.302;2023-03-26T18:04:36;2.45;;;1.20;;
29732;SDS011;16643;43.158;25.302;2023-03-26T18:12:46;1.23;;;0.70;;
29732;SDS011;16643;43.158;25.302;2023-03-26T18:17:50;1.55;;;0.60;;
29732;SDS011;16643;43.158;25.302;2023-03-26T18:20:46;1.30;;;0.35;;
29732;SDS011;16643;43.158;25.302;2023-03-26T18:23:21;1.73;;;0.90;;
29732;SDS011;16643;43.158;25.302;2023-03-26T18:25:51;3.03;;;0.90;;
29732;SDS011;16643;43.158;25.302;2023-03-26T18:28:27;2.13;;;1.10;;
29732;SDS011;16643;43.158;25.302;2023-03-26T18:31:06;1.40;;;1.05;;
29732;SDS011;16643;43.158;25.302;2023-03-26T18:33:41;2.00;;;1.10;;
29732;SDS011;16643;43.158;25.302;2023-03-26T18:36:08;3.60;;;1.17;;
29732;SDS011;16643;43.158;25.302;2023-03-26T18:38:35;2.22;;;1.15;;
29732;SDS011;16643;43.158;25.302;2023-03-26T18:41:01;2.92;;;1.52;;
29732;SDS011;16643;43.158;25.302;2023-03-26T18:43:30;2.03;;;1.42;;
29732;SDS011;16643;43.158;25.302;2023-03-26T18:45:58;3.08;;;1.35;;
29732;SDS011;16643;43.158;25.302;2023-03-26T18:48:24;3.53;;;1.52;;
29732;SDS011;16643;43.158;25.302;2023-03-26T18:50:53;5.03;;;1.58;;
29732;SDS011;16643;43.158;25.302;2023-03-26T18:53:28;2.55;;;1.15;;
29732;SDS011;16643;43.158;25.302;2023-03-26T18:55:55;3.47;;;1.70;;
29732;SDS011;16643;43.158;25.302;2023-03-26T18:58:26;2.92;;;1.55;;
29732;SDS011;16643;43.158;25.302;2023-03-26T19:01:16;4.80;;;1.58;;
29732;SDS011;16643;43.158;25.302;2023-03-26T19:03:43;3.22;;;1.70;;
29732;SDS011;16643;43.158;25.302;2023-03-26T19:06:10;2.08;;;1.45;;
29732;SDS011;16643;43.158;25.302;2023-03-26T19:08:38;2.75;;;1.10;;
29732;SDS011;16643;43.158;25.302;2023-03-26T19:11:07;1.98;;;1.20;;
29732;SDS011;16643;43.158;25.302;2023-03-26T19:13:35;4.00;;;1.40;;
29732;SDS011;16643;43.158;25.302;2023-03-26T19:16:08;2.63;;;1.30;;
29732;SDS011;16643;43.158;25.302;2023-03-26T19:18:47;3.45;;;1.33;;
29732;SDS011;16643;43.158;25.302;2023-03-26T19:21:14;2.60;;;1.20;;
29732;SDS011;16643;43.158;25.302;2023-03-26T19:23:42;3.88;;;1.30;;
29732;SDS011;16643;43.158;25.302;2023-03-26T19:26:10;3.03;;;1.35;;
29732;SDS011;16643;43.158;25.302;2023-03-26T19:28:50;2.10;;;1.20;;
29732;SDS011;16643;43.158;25.302;2023-03-26T19:31:21;5.38;;;1.70;;
29732;SDS011;16643;43.158;25.302;2023-03-26T19:33:52;2.17;;;1.75;;
29732;SDS011;16643;43.158;25.302;2023-03-26T19:36:24;3.28;;;1.60;;
29732;SDS011;16643;43.158;25.302;2023-03-26T19:39:00;9.43;;;3.30;;
29732;SDS011;16643;43.158;25.302;2023-03-26T19:43:58;4.97;;;2.13;;
29732;SDS011;16643;43.158;25.302;2023-03-26T19:46:26;3.25;;;0.80;;
29732;SDS011;16643;43.158;25.302;2023-03-26T19:48:56;2.45;;;0.60;;
29732;SDS011;16643;43.158;25.302;2023-03-26T19:51:33;1.83;;;0.80;;
29732;SDS011;16643;43.158;25.302;2023-03-26T19:54:01;0.82;;;0.60;;
29732;SDS011;16643;43.158;25.302;2023-03-26T19:56:35;1.15;;;0.55;;
29732;SDS011;16643;43.158;25.302;2023-03-26T19:59:01;2.15;;;0.77;;
29732;SDS011;16643;43.158;25.302;2023-03-26T20:01:28;6.28;;;1.15;;
29732;SDS011;16643;43.158;25.302;2023-03-26T20:04:05;3.03;;;1.05;;
29732;SDS011;16643;43.158;25.302;2023-03-26T20:06:34;3.28;;;0.90;;
29732;SDS011;16643;43.158;25.302;2023-03-26T20:09:04;4.57;;;1.08;;
29732;SDS011;16643;43.158;25.302;2023-03-26T20:11:31;3.15;;;1.50;;
29732;SDS011;16643;43.158;25.302;2023-03-26T20:14:12;2.15;;;0.82;;
29732;SDS011;16643;43.158;25.302;2023-03-26T20:16:43;1.95;;;0.90;;
29732;SDS011;16643;43.158;25.302;2023-03-26T20:19:09;3.72;;;1.10;;
29732;SDS011;16643;43.158;25.302;2023-03-26T20:21:35;3.13;;;0.85;;
29732;SDS011;16643;43.158;25.302;2023-03-26T20:24:07;2.45;;;0.80;;